createdAt,value
2023-04-16T00:00:15.430Z,86.07
2023-04-16T00:03:17.697Z,84.34
2023-04-16T00:06:20.174Z,84.37
2023-04-16T00:09:22.082Z,85.05
2023-04-16T00:12:24.209Z,87.01
2023-04-16T00:15:26.470Z,86.07
2023-04-16T00:18:37.909Z,87.34
2023-04-16T00:21:39.947Z,84.71
2023-04-16T00:24:42.202Z,84.49
2023-04-16T00:27:44.097Z,86.43
2023-04-16T00:30:46.200Z,86.71
2023-04-16T00:33:48.151Z,85.35
2023-04-16T00:36:49.991Z,85.12
2023-04-16T00:39:51.867Z,83.25
2023-04-16T00:42:53.701Z,86.34
2023-04-16T00:45:57.001Z,87.25
2023-04-16T00:49:01.334Z,86.06
2023-04-16T00:52:03.454Z,86.20
2023-04-16T00:55:07.527Z,87.10
2023-04-16T00:58:09.766Z,87.77
2023-04-16T01:01:11.864Z,86.86
2023-04-16T01:04:14.449Z,86.74
2023-04-16T01:07:17.262Z,85.81
2023-04-16T01:10:19.200Z,84.53
2023-04-16T01:13:21.194Z,85.58
2023-04-16T01:16:23.202Z,85.76
2023-04-16T01:19:25.265Z,87.54
2023-04-16T01:22:30.904Z,86.72
2023-04-16T01:25:32.760Z,86.93
2023-04-16T01:28:35.410Z,87.83
2023-04-16T01:31:37.470Z,87.98
2023-04-16T01:34:39.254Z,86.57
2023-04-16T01:37:41.121Z,85.10
2023-04-16T01:40:43.354Z,85.82
2023-04-16T01:43:45.508Z,85.35
2023-04-16T01:46:47.558Z,85.43
2023-04-16T01:49:49.699Z,87.39
2023-04-16T01:52:51.525Z,85.30
2023-04-16T01:55:53.969Z,85.26
2023-04-16T01:58:56.192Z,86.54
2023-04-16T02:02:07.312Z,87.22
2023-04-16T02:05:09.275Z,86.99
2023-04-16T02:08:11.296Z,85.91
2023-04-16T02:11:13.362Z,84.24
2023-04-16T02:14:15.364Z,85.56
2023-04-16T02:17:17.803Z,86.47
2023-04-16T02:20:19.955Z,87.54
2023-04-16T02:23:21.749Z,86.13
2023-04-16T02:26:23.618Z,86.38
2023-04-16T02:29:25.543Z,86.91
2023-04-16T02:32:27.490Z,86.83
2023-04-16T02:35:29.530Z,85.60
2023-04-16T02:38:31.607Z,85.73
2023-04-16T02:41:33.952Z,84.77
2023-04-16T02:44:35.865Z,84.33
2023-04-16T02:47:37.864Z,84.72
2023-04-16T02:50:39.703Z,85.79
2023-04-16T02:53:45.551Z,86.85
2023-04-16T02:56:47.465Z,86.72
2023-04-16T02:59:49.356Z,86.65
2023-04-16T03:02:51.495Z,86.29
2023-04-16T03:05:53.512Z,85.58
2023-04-16T03:08:55.334Z,87.78
2023-04-16T03:11:57.262Z,88.00
2023-04-16T03:14:59.275Z,88.66
2023-04-16T03:18:01.314Z,89.62
2023-04-16T03:21:03.421Z,87.80
2023-04-16T03:24:05.709Z,86.24
2023-04-16T03:27:07.542Z,85.23
2023-04-16T03:30:13.542Z,86.71
2023-04-16T03:33:15.530Z,87.96
2023-04-16T03:36:17.396Z,86.26
2023-04-16T03:39:19.569Z,86.69
2023-04-16T03:42:21.369Z,87.03
2023-04-16T03:45:23.225Z,87.43
2023-04-16T03:48:25.044Z,88.33
2023-04-16T03:51:27.161Z,86.83
2023-04-16T03:54:29.101Z,87.38
2023-04-16T03:57:31.234Z,86.28
2023-04-16T04:00:33.153Z,86.70
2023-04-16T04:03:35.221Z,86.95
2023-04-16T04:06:37.691Z,86.21
2023-04-16T04:09:39.580Z,86.35
2023-04-16T04:12:41.599Z,86.13
2023-04-16T04:15:44.559Z,86.66
2023-04-16T04:18:46.647Z,86.37
2023-04-16T04:21:48.536Z,85.73
2023-04-16T04:24:50.402Z,84.49
2023-04-16T04:27:52.217Z,82.66
2023-04-16T04:30:54.063Z,79.56
2023-04-16T04:33:56.220Z,76.94
2023-04-16T04:36:59.035Z,75.92
2023-04-16T04:40:01.018Z,75.52
2023-04-16T04:43:02.915Z,75.22
2023-04-16T04:46:04.966Z,73.79
2023-04-16T04:49:07.048Z,73.98
2023-04-16T04:52:09.071Z,73.16
2023-04-16T04:55:11.344Z,72.91
2023-04-16T04:58:13.189Z,71.35
2023-04-16T05:01:15.658Z,69.33
2023-04-16T05:04:17.830Z,70.02
2023-04-16T05:07:19.726Z,68.48
2023-04-16T05:10:21.650Z,70.52
2023-04-16T05:13:23.615Z,73.84
2023-04-16T05:16:25.635Z,77.44
2023-04-16T05:19:27.925Z,78.50
2023-04-16T05:22:29.749Z,78.10
2023-04-16T05:25:31.852Z,78.54
2023-04-16T05:28:33.921Z,78.78
2023-04-16T05:31:36.460Z,77.95
2023-04-16T05:34:38.291Z,77.18
2023-04-16T05:37:40.202Z,76.98
2023-04-16T05:40:42.085Z,72.43
2023-04-16T05:43:43.940Z,69.94
2023-04-16T05:46:46.024Z,65.88
2023-04-16T05:49:47.906Z,65.21
2023-04-16T05:52:49.684Z,66.26
2023-04-16T05:55:51.584Z,62.45
2023-04-16T05:58:57.272Z,65.24
2023-04-16T06:01:59.799Z,61.09
2023-04-16T06:05:01.799Z,61.81
2023-04-16T06:08:03.843Z,57.72
2023-04-16T06:11:05.988Z,55.80
2023-04-16T06:14:07.906Z,59.22
2023-04-16T06:17:09.787Z,54.75
2023-04-16T06:20:12.655Z,50.45
2023-04-16T06:23:15.732Z,52.34
2023-04-16T06:26:18.358Z,48.26
2023-04-16T06:29:21.319Z,46.87
2023-04-16T06:32:25.064Z,45.88
2023-04-16T06:35:26.996Z,46.94
2023-04-16T06:38:28.882Z,48.38
2023-04-16T06:41:31.180Z,51.28
2023-04-16T06:44:33.166Z,48.05
2023-04-16T06:47:35.001Z,48.67
2023-04-16T06:50:37.661Z,49.27
2023-04-16T06:53:39.682Z,48.94
2023-04-16T06:56:41.627Z,51.86
2023-04-16T06:59:43.480Z,48.71
2023-04-16T07:02:45.515Z,50.75
2023-04-16T07:05:47.468Z,52.52
2023-04-16T07:08:49.379Z,53.73
2023-04-16T07:11:51.512Z,52.10
2023-04-16T07:14:53.546Z,51.88
2023-04-16T07:17:55.474Z,51.89
2023-04-16T07:20:57.567Z,50.22
2023-04-16T07:23:59.688Z,49.24
2023-04-16T07:27:01.687Z,50.85
2023-04-16T07:30:04.013Z,50.38
2023-04-16T07:33:06.206Z,48.93
2023-04-16T07:36:08.165Z,50.42
2023-04-16T07:39:11.407Z,46.96
2023-04-16T07:42:14.374Z,47.01
2023-04-16T07:45:17.080Z,44.49
2023-04-16T07:48:19.160Z,38.02
2023-04-16T07:51:21.349Z,40.58
2023-04-16T07:54:23.337Z,42.87
2023-04-16T07:57:25.411Z,39.57
2023-04-16T08:00:27.756Z,40.33
2023-04-16T08:03:30.935Z,43.46
2023-04-16T08:06:33.010Z,39.56
2023-04-16T08:09:36.308Z,40.55
2023-04-16T08:12:38.353Z,39.47
2023-04-16T08:15:40.265Z,38.33
2023-04-16T08:18:43.420Z,42.43
2023-04-16T08:21:45.802Z,42.56
2023-04-16T08:24:47.713Z,41.23
2023-04-16T08:27:49.652Z,39.99
2023-04-16T08:30:51.740Z,42.07
2023-04-16T08:33:53.591Z,40.32
2023-04-16T08:36:55.848Z,39.91
2023-04-16T08:39:57.750Z,41.68
2023-04-16T08:43:03.088Z,41.27
2023-04-16T08:46:09.174Z,43.75
2023-04-16T08:49:17.965Z,43.10
2023-04-16T08:52:24.217Z,41.75
2023-04-16T08:55:38.488Z,42.04
2023-04-16T08:58:41.192Z,44.13
2023-04-16T09:01:43.597Z,44.05
2023-04-16T09:04:46.971Z,42.85
2023-04-16T09:07:49.038Z,42.87
2023-04-16T09:10:51.359Z,39.86
2023-04-16T09:13:53.756Z,41.05
2023-04-16T09:16:56.209Z,41.05
2023-04-16T09:19:58.234Z,38.99
2023-04-16T09:23:00.768Z,33.81
2023-04-16T09:26:05.585Z,34.77
2023-04-16T09:29:09.883Z,37.87
2023-04-16T09:32:12.528Z,35.35
2023-04-16T09:35:15.687Z,34.21
2023-04-16T09:38:18.245Z,33.39
2023-04-16T09:41:24.380Z,37.03
2023-04-16T09:44:36.911Z,35.72
2023-04-16T09:47:44.917Z,37.53
2023-04-16T09:50:52.442Z,37.04
2023-04-16T09:53:57.267Z,37.11
2023-04-16T09:57:00.984Z,37.77
2023-04-16T10:00:06.238Z,39.46
2023-04-16T10:03:08.423Z,37.58
2023-04-16T10:06:22.006Z,39.55
2023-04-16T10:09:23.894Z,41.00
2023-04-16T10:12:27.210Z,41.96
2023-04-16T10:15:29.502Z,39.33
2023-04-16T10:18:31.561Z,40.10
2023-04-16T10:21:35.444Z,40.36
2023-04-16T10:24:37.382Z,38.07
2023-04-16T10:27:40.791Z,37.48
2023-04-16T10:30:52.686Z,36.25
2023-04-16T10:33:56.206Z,32.02
2023-04-16T10:36:58.110Z,30.31
2023-04-16T10:40:00.198Z,33.77
2023-04-16T10:43:02.295Z,28.74
2023-04-16T10:46:32.942Z,32.30
2023-04-16T10:49:35.913Z,28.78
2023-04-16T10:52:38.182Z,27.73
2023-04-16T10:55:40.076Z,30.21
2023-04-16T10:58:42.391Z,28.24
2023-04-16T11:01:47.049Z,27.50
2023-04-16T11:04:50.020Z,30.95
2023-04-16T11:07:52.076Z,33.28
2023-04-16T11:10:57.975Z,32.89
2023-04-16T11:14:00.364Z,31.00
2023-04-16T11:17:03.930Z,33.56
2023-04-16T11:20:19.488Z,35.50
2023-04-16T11:23:22.225Z,36.96
2023-04-16T11:26:28.800Z,38.17
2023-04-16T11:29:30.743Z,42.07
2023-04-16T11:32:33.982Z,41.89
2023-04-16T11:35:36.288Z,39.83
2023-04-16T11:38:41.570Z,41.68
2023-04-16T11:41:47.939Z,36.19
2023-04-16T11:44:57.021Z,36.46
2023-04-16T11:47:59.001Z,36.03
2023-04-16T11:51:01.079Z,37.12
2023-04-16T11:54:03.009Z,39.52
2023-04-16T11:57:05.076Z,36.12
2023-04-16T12:00:13.001Z,36.21
2023-04-16T12:03:15.279Z,37.08
2023-04-16T12:06:17.494Z,36.36
2023-04-16T12:09:31.824Z,36.34
2023-04-16T12:12:35.473Z,34.52
2023-04-16T12:15:51.746Z,30.81
2023-04-16T12:19:01.339Z,33.20
2023-04-16T12:22:03.298Z,33.84
2023-04-16T12:25:14.079Z,34.60
2023-04-16T12:28:31.060Z,37.90
2023-04-16T12:31:40.508Z,34.53
2023-04-16T12:34:54.080Z,38.44
2023-04-16T12:37:56.011Z,39.11
2023-04-16T12:40:59.005Z,37.39
2023-04-16T12:44:18.993Z,39.23
2023-04-16T12:47:20.930Z,35.40
2023-04-16T12:50:22.881Z,38.93
2023-04-16T12:53:24.888Z,37.05
2023-04-16T12:56:27.469Z,39.04
2023-04-16T12:59:29.477Z,38.11
2023-04-16T13:02:32.503Z,39.12
2023-04-16T13:05:34.651Z,38.49
2023-04-16T13:08:46.971Z,38.33
2023-04-16T13:11:49.165Z,39.96
2023-04-16T13:15:07.625Z,40.13
2023-04-16T13:18:09.837Z,36.30
2023-04-16T13:21:12.161Z,38.81
2023-04-16T13:24:14.417Z,37.50
2023-04-16T13:27:16.902Z,38.01
2023-04-16T13:30:18.850Z,38.29
2023-04-16T13:33:21.440Z,39.12
2023-04-16T13:36:23.888Z,40.28
2023-04-16T13:39:27.544Z,36.98
2023-04-16T13:42:29.514Z,38.36
2023-04-16T13:45:31.828Z,38.63
2023-04-16T13:48:33.697Z,38.53
2023-04-16T13:51:38.549Z,38.88
2023-04-16T13:54:40.944Z,38.31
2023-04-16T13:57:47.792Z,39.14
2023-04-16T14:00:50.586Z,39.97
2023-04-16T14:03:52.799Z,39.87
2023-04-16T14:06:55.394Z,38.49
2023-04-16T14:09:57.283Z,37.52
2023-04-16T14:12:59.517Z,38.21
2023-04-16T14:16:02.732Z,41.67
2023-04-16T14:19:04.625Z,38.67
2023-04-16T14:22:08.753Z,38.95
2023-04-16T14:25:11.222Z,38.86
2023-04-16T14:28:15.627Z,39.75
2023-04-16T14:31:18.106Z,35.52
2023-04-16T14:34:20.011Z,39.19
2023-04-16T14:37:22.163Z,35.38
2023-04-16T14:40:23.998Z,35.91
2023-04-16T14:43:26.239Z,37.31
2023-04-16T14:46:28.447Z,36.81
2023-04-16T14:49:30.579Z,39.06
2023-04-16T14:52:32.759Z,38.26
2023-04-16T14:55:34.750Z,38.78
2023-04-16T14:58:39.153Z,38.81
2023-04-16T15:01:42.084Z,39.42
2023-04-16T15:04:44.285Z,40.04
2023-04-16T15:07:46.247Z,39.34
2023-04-16T15:10:48.191Z,40.28
2023-04-16T15:13:50.370Z,39.93
2023-04-16T15:16:54.901Z,38.73
2023-04-16T15:19:57.128Z,39.75
2023-04-16T15:22:59.362Z,39.72
2023-04-16T15:26:03.656Z,40.01
2023-04-16T15:29:06.339Z,40.50
2023-04-16T15:32:08.764Z,42.72
2023-04-16T15:35:11.444Z,40.48
2023-04-16T15:38:13.755Z,40.99
2023-04-16T15:41:15.912Z,40.82
2023-04-16T15:44:18.084Z,41.16
2023-04-16T15:47:21.107Z,41.52
2023-04-16T15:50:23.642Z,42.30
2023-04-16T15:53:26.527Z,42.02
2023-04-16T15:56:28.660Z,41.77
2023-04-16T15:59:31.212Z,43.06
2023-04-16T16:02:34.211Z,42.98
2023-04-16T16:05:36.769Z,43.07
2023-04-16T16:08:39.480Z,43.82
2023-04-16T16:11:42.413Z,43.97
2023-04-16T16:14:44.716Z,43.46
2023-04-16T16:17:47.357Z,44.18
2023-04-16T16:20:49.979Z,44.74
2023-04-16T16:23:52.158Z,45.66
2023-04-16T16:26:54.217Z,44.95
2023-04-16T16:30:01.849Z,43.61
2023-04-16T16:33:05.792Z,44.35
2023-04-16T16:36:12.180Z,43.10
2023-04-16T16:39:15.209Z,42.62
2023-04-16T16:42:21.097Z,42.03
2023-04-16T16:45:26.451Z,42.82
2023-04-16T16:48:31.356Z,42.23
2023-04-16T16:51:33.982Z,42.71
2023-04-16T16:54:36.136Z,41.93
2023-04-16T16:57:43.096Z,42.71
2023-04-16T17:00:57.725Z,41.65
2023-04-16T17:04:00.598Z,41.99
2023-04-16T17:07:03.110Z,40.44
2023-04-16T17:10:07.341Z,42.62
2023-04-16T17:13:09.865Z,40.45
2023-04-16T17:16:13.240Z,41.48
2023-04-16T17:19:16.009Z,41.07
2023-04-16T17:22:18.393Z,40.26
2023-04-16T17:25:20.747Z,41.17
2023-04-16T17:28:23.324Z,40.29
2023-04-16T17:31:29.012Z,40.30
2023-04-16T17:34:31.703Z,41.38
2023-04-16T17:37:34.615Z,41.25
2023-04-16T17:40:40.300Z,40.31
2023-04-16T17:43:43.356Z,40.50
2023-04-16T17:46:48.581Z,41.69
2023-04-16T17:49:57.710Z,41.86
2023-04-16T17:53:03.658Z,41.93
2023-04-16T17:56:06.884Z,40.86
2023-04-16T17:59:09.248Z,42.23
2023-04-16T18:02:11.513Z,42.25
2023-04-16T18:05:14.796Z,41.76
2023-04-16T18:08:17.122Z,42.25
2023-04-16T18:11:19.436Z,42.46
2023-04-16T18:14:25.191Z,43.60
2023-04-16T18:17:27.426Z,42.43
2023-04-16T18:20:29.754Z,42.69
2023-04-16T18:23:31.900Z,42.46
2023-04-16T18:26:36.201Z,42.39
2023-04-16T18:29:39.876Z,43.00
2023-04-16T18:32:56.115Z,43.43
2023-04-16T18:36:04.696Z,42.95
2023-04-16T18:39:08.260Z,43.62
2023-04-16T18:42:10.706Z,44.03
2023-04-16T18:45:20.983Z,42.36
2023-04-16T18:48:23.799Z,42.89
2023-04-16T18:51:27.358Z,42.70
2023-04-16T18:54:29.561Z,43.16
2023-04-16T18:57:31.767Z,42.38
2023-04-16T19:00:34.006Z,42.79
2023-04-16T19:03:37.112Z,42.47
2023-04-16T19:06:40.295Z,43.24
2023-04-16T19:09:42.555Z,43.20
2023-04-16T19:12:44.775Z,43.52
2023-04-16T19:15:47.878Z,44.78
2023-04-16T19:18:50.896Z,44.26
2023-04-16T19:21:53.364Z,44.50
2023-04-16T19:24:57.428Z,46.16
2023-04-16T19:28:01.243Z,45.12
2023-04-16T19:31:03.344Z,46.76
2023-04-16T19:34:05.690Z,47.70
2023-04-16T19:37:09.691Z,48.34
2023-04-16T19:40:12.111Z,48.69
2023-04-16T19:43:17.441Z,49.21
2023-04-16T19:46:19.429Z,49.29
2023-04-16T19:49:21.683Z,49.84
2023-04-16T19:52:23.566Z,49.75
2023-04-16T19:55:26.520Z,49.89
2023-04-16T19:58:28.536Z,50.33
2023-04-16T20:01:38.269Z,50.35
2023-04-16T20:04:41.977Z,51.57
2023-04-16T20:07:44.271Z,51.39
2023-04-16T20:10:46.574Z,51.94
2023-04-16T20:13:48.835Z,52.10
2023-04-16T20:16:50.759Z,53.63
2023-04-16T20:19:53.212Z,52.61
2023-04-16T20:22:55.703Z,53.94
2023-04-16T20:25:57.612Z,54.25
2023-04-16T20:29:02.682Z,54.14
2023-04-16T20:32:05.925Z,54.36
2023-04-16T20:35:13.646Z,55.01
2023-04-16T20:38:15.525Z,54.80
2023-04-16T20:41:23.589Z,54.37
2023-04-16T20:44:48.599Z,55.26
2023-04-16T20:47:51.151Z,55.71
2023-04-16T20:50:58.535Z,56.15
2023-04-16T20:54:01.100Z,56.32
2023-04-16T20:57:04.828Z,56.46
2023-04-16T21:00:10.324Z,56.92
2023-04-16T21:03:12.245Z,56.94
2023-04-16T21:06:17.864Z,56.29
2023-04-16T21:09:21.350Z,56.47
2023-04-16T21:12:24.519Z,56.66
2023-04-16T21:15:26.735Z,56.38
2023-04-16T21:18:29.473Z,56.81
2023-04-16T21:21:32.535Z,56.82
2023-04-16T21:24:34.660Z,56.77
2023-04-16T21:27:36.477Z,56.70
2023-04-16T21:30:38.864Z,56.13
2023-04-16T21:33:41.128Z,56.34
2023-04-16T21:36:42.928Z,57.63
2023-04-16T21:39:45.275Z,57.13
2023-04-16T21:42:47.221Z,56.29
2023-04-16T21:45:52.097Z,56.93
2023-04-16T21:48:54.081Z,57.06
2023-04-16T21:51:59.249Z,56.32
2023-04-16T21:55:01.175Z,56.46
2023-04-16T21:58:03.930Z,55.97
2023-04-16T22:01:07.713Z,56.54
2023-04-16T22:04:12.332Z,57.06
2023-04-16T22:07:22.132Z,56.67
2023-04-16T22:10:27.344Z,56.51
2023-04-16T22:13:42.460Z,56.45
2023-04-16T22:16:46.288Z,57.08
2023-04-16T22:19:49.427Z,56.38
2023-04-16T22:22:57.903Z,56.46
2023-04-16T22:26:16.371Z,56.32
2023-04-16T22:29:22.896Z,56.60
2023-04-16T22:32:27.900Z,56.57
2023-04-16T22:35:43.877Z,56.04
2023-04-16T22:38:46.831Z,56.45
2023-04-16T22:42:05.548Z,56.51
2023-04-16T22:45:08.530Z,56.53
2023-04-16T22:48:13.059Z,56.60
2023-04-16T22:51:17.634Z,56.78
2023-04-16T22:54:21.662Z,56.37
2023-04-16T22:57:26.706Z,56.63
2023-04-16T23:00:28.769Z,56.60
2023-04-16T23:03:31.557Z,55.81
2023-04-16T23:06:33.719Z,56.75
2023-04-16T23:09:36.397Z,57.46
2023-04-16T23:12:40.668Z,57.36
2023-04-16T23:16:21.252Z,56.68
2023-04-16T23:19:32.846Z,57.16
2023-04-16T23:22:35.078Z,58.07
2023-04-16T23:25:37.229Z,57.37
2023-04-16T23:28:46.013Z,57.11
2023-04-16T23:31:50.279Z,57.98
2023-04-16T23:34:52.625Z,57.78
2023-04-16T23:37:54.860Z,58.56
2023-04-16T23:40:56.918Z,58.11
2023-04-16T23:43:59.118Z,58.53
2023-04-16T23:47:01.268Z,58.52
2023-04-16T23:50:03.797Z,58.81
2023-04-16T23:53:06.223Z,58.07
2023-04-16T23:56:11.319Z,58.89
2023-04-16T23:59:13.871Z,59.49
